Terminal Aerodrome Forecast
Issued by NWS Blacksburg, VA

Home | Current Version | Previous Version | Text Only | Print | Product List | Glossary On
Versions: 1 2 3 4 5 6 7 8 9 10 11 12 13 14 15 16 17 18 19
000
FTUS41 KRNK 310334 AAD
TAFLYH
TAF AMD
KLYH 310334Z 3104/3124 VRB03KT 3SM -TSRA OVC012CB
     FM310430 14004KT P6SM VCSH BKN012 OVC035
     FM310700 00000KT 1 1/2SM BR BKN006
     FM311400 05005KT P6SM SCT100
     FM311900 07009KT P6SM SCT050=

USA.gov is the U.S. government's official web portal to all federal, state and local government web resources and services.